Rejestracja

Wszystkie dane podawane są w czasie UTC za wyjątkiem miejsc gdzie jest jednoznacznie podane, że jest inaczej. Dane podawane w serwisie mają charakter informacyjny!!!
Informacje w sprawie dostępu do serwisu pod numerem tel. +48 22 68-28-138, CA MON (828-138)!!!
W związku z pracami remontowymi w SSH SZ RP mogą wystąpić problemy z obiegiem informacji meteorologicznej do dnia 30.09.2014r.
W tych przypadkach niezbędne informacje meteorologiczne udzielane będą pod nr tel. (22) 6828-230.

Aktualna Pogoda
 
Pogoda w Polsce
19°C Szczecin 13°C Suwałki 18°C Warszawa 19°C Poznan
19°C Opole 17°C Kraków 16°C Rzeszów
Więcej miast w Polsce

Pogoda w Europie
20°C Berlin 20°C Paryz 18°C Bruksela 16°C Oslo
21°C Praga 17°C Zagrzeb
Więcej miast w Europie

Metary wojskowe test
METAR EPBC 160900Z 07012KT CAVOK 19/11 Q1024=
METAR EPCE 160900Z 11008KT 070V150 CAVOK 18/08 Q1025 RMK 183 052 3/3=
METAR EPDA 160900Z 09009KT CAVOK 18/11 Q1024 RMK 184 061 5/5=
METAR EPDE 160900Z 07012KT 9999 FEW009 SCT200 12/10 Q1025 RMK 118 088 3/2=
METAR EPIR 160900Z 08010KT CAVOK 18/13 Q1024 RMK 180 064 3/3=
METAR EPKS 160900Z 09010KT CAVOK 20/11 Q1022 RMK 195 057 3/3=
METAR EPLK 160900Z 12008KT CAVOK 18/10 Q1022 RMK 178 058 5/5=
METAR EPLY 160900Z 06008KT CAVOK 18/12 Q1024 RMK 177 062 2/2=
METAR EPMB 160900Z 11006KT CAVOK 18/10 Q1025 RMK 178 058 1/1=
METAR EPMI 160900Z 11010KT CAVOK 19/09 Q1023 RMK 187 052 2/2=
METAR EPMM 160900Z 07012KT 9999 SCT007 13/09 Q1025 RMK 130 076 3/3=
METAR EPNA 160900Z 08010KT CAVOK 19/09 Q1023 RMK 186 056 3/3=
METAR EPOK 160900Z 11006KT 070V190 CAVOK 16/10 Q1025 RMK 157 071 3/3=
METAR EPPR 160900Z 07004KT 9999 SCT200 17/10 Q1025 RMK 167 066 4/4=
METAR EPPW 160900Z 09010KT CAVOK 18/09 Q1023 RMK 179 055 4/4=
METAR EPRA 160900Z 10008KT CAVOK 17/11 Q1024 RMK 170 069 5/5=
METAR EPSN 160900Z 06008KT CAVOK 20/11 Q1023 RMK 202 054 4/4=
METAR EPTM 160900Z 07008KT CAVOK 17/10 Q1023 RMK 173 060 3/3=


 
Informacje ogólne
Pogoda
Warszawa
Temperatura: 17.9°C
Wiatr: 6.0 m/s
Ciśnienie: 1024.3 hPa
Zjawiska: Brak
Temp. max: 17.9 °C
Temp. min: 9.6 °C


Dane astronomiczne
Warszawa:
Dzien: 12:38 h
Noc: 11:22 h


Using HW VSP powered by HW group.

Prawa autorskie©2007 SSH SZ RP. Wszelkie prawa zastrzeżone.